Time;durP1;ratioP1;P1;durP2;ratioP2;P2;SDS_P1;SDS_P2;PMS_P1;PMS_P2;Temp;Humidity;BMP_temperature;BMP_pressure;BME280_temperature;BME280_humidity;BME280_pressure;Samples;Min_cycle;Max_cycle;Signal;HPM_P1;HPM_P2
2020/12/14 00:00:49;;;;;;;7.40;4.13;;;2.40;99.90;;;3.08;100.00;97676.44;5067699;28;20524;-83
2020/12/14 00:03:16;;;;;;;8.90;4.00;;;2.30;99.90;;;3.05;100.00;97682.69;5073917;28;20463;-82
2020/12/14 00:05:45;;;;;;;4.17;3.17;;;2.20;99.90;;;3.16;100.00;97704.09;5072228;28;20467;-82
2020/12/14 00:08:12;;;;;;;7.53;3.57;;;2.40;99.90;;;3.17;100.00;97695.38;5074627;28;21253;-82
2020/12/14 00:10:40;;;;;;;4.83;3.00;;;2.40;99.90;;;3.16;100.00;97691.19;5073958;28;20514;-82
2020/12/14 00:13:07;;;;;;;4.77;2.90;;;2.40;99.90;;;3.20;100.00;97688.13;5071932;28;20475;-82
2020/12/14 00:15:35;;;;;;;4.90;3.10;;;2.50;99.90;;;3.17;100.00;97679.88;5073545;28;20949;-82
2020/12/14 00:18:02;;;;;;;4.73;3.03;;;2.40;99.90;;;3.13;100.00;97687.09;5073334;28;20517;-82
2020/12/14 00:20:30;;;;;;;7.17;3.20;;;2.30;99.90;;;3.20;100.00;97695.06;5076622;28;20971;-82
2020/12/14 00:22:58;;;;;;;6.47;2.70;;;2.40;99.90;;;3.14;100.00;97681.00;5079112;28;20456;-82
2020/12/14 00:25:25;;;;;;;13.63;3.03;;;2.40;99.90;;;3.13;100.00;97681.94;5076524;28;20462;-82
2020/12/14 00:27:53;;;;;;;5.93;3.10;;;2.40;99.90;;;3.16;100.00;97679.06;5078675;28;20479;-82
2020/12/14 00:30:20;;;;;;;6.70;3.07;;;2.40;99.90;;;3.07;100.00;97685.13;5076330;28;20529;-82
2020/12/14 00:32:48;;;;;;;7.13;3.17;;;2.30;99.90;;;2.84;100.00;97679.63;5078779;28;20947;-83
2020/12/14 00:35:17;;;;;;;7.40;3.03;;;2.00;99.90;;;2.79;100.00;97668.09;5074301;28;20464;-83
2020/12/14 00:37:44;;;;;;;4.63;2.60;;;2.00;99.90;;;2.81;100.00;97669.56;5078463;28;20470;-83
2020/12/14 00:40:13;;;;;;;6.40;3.37;;;2.00;99.90;;;2.87;100.00;97652.69;5073848;28;20894;-82
2020/12/14 00:42:43;;;;;;;3.13;2.80;;;2.10;99.90;;;2.91;100.00;97666.94;5077372;28;20483;-83
2020/12/14 00:45:10;;;;;;;5.83;3.33;;;2.10;99.90;;;2.86;100.00;97659.63;5071993;28;20471;-83
2020/12/14 00:47:38;;;;;;;11.50;3.37;;;2.10;99.90;;;2.76;100.00;97661.47;5076119;28;20956;-83
2020/12/14 00:50:05;;;;;;;8.93;2.80;;;2.00;99.90;;;2.76;100.00;97655.47;5073955;28;20471;-82
2020/12/14 00:52:33;;;;;;;6.10;3.07;;;2.00;99.90;;;2.84;100.00;97658.97;5075650;28;20468;-82
2020/12/14 00:55:01;;;;;;;11.80;3.00;;;2.10;99.90;;;2.90;100.00;97658.38;5074824;28;20467;-82
2020/12/14 00:57:29;;;;;;;7.07;3.20;;;2.20;99.90;;;2.86;100.00;97667.34;5075483;28;20490;-83
2020/12/14 00:59:57;;;;;;;8.30;3.37;;;2.10;99.90;;;2.80;100.00;97667.97;5073619;28;20495;-82
2020/12/14 01:02:25;;;;;;;7.73;2.83;;;2.00;99.90;;;2.83;100.00;97666.84;5073371;28;20464;-82
2020/12/14 01:04:54;;;;;;;6.73;2.80;;;2.00;99.90;;;2.86;100.00;97666.53;5077889;28;20460;-82
2020/12/14 01:07:22;;;;;;;3.50;2.30;;;2.10;99.90;;;2.84;100.00;97660.72;5076366;28;20916;-82
2020/12/14 01:09:49;;;;;;;5.20;2.23;;;2.10;99.90;;;2.89;100.00;97653.34;5074014;28;20463;-82
2020/12/14 01:12:17;;;;;;;8.03;3.00;;;2.20;99.90;;;2.94;100.00;97664.84;5076682;28;20464;-82
2020/12/14 01:14:45;;;;;;;6.40;3.60;;;2.20;99.90;;;2.96;100.00;97670.66;5078190;28;20463;-82
2020/12/14 01:17:13;;;;;;;4.30;2.63;;;2.20;99.90;;;2.89;100.00;97661.91;5072891;28;20876;-82
2020/12/14 01:19:40;;;;;;;3.40;2.50;;;2.10;99.90;;;2.93;100.00;97657.25;5073642;28;20590;-82
2020/12/14 01:22:08;;;;;;;3.77;2.93;;;2.10;99.90;;;3.00;100.00;97646.19;5075920;28;20955;-82
2020/12/14 01:24:35;;;;;;;7.70;3.20;;;2.20;99.90;;;3.07;100.00;97654.13;5078625;28;20897;-83
2020/12/14 01:27:03;;;;;;;6.60;2.80;;;2.30;99.90;;;3.14;100.00;97649.19;5076729;28;20484;-82
2020/12/14 01:29:30;;;;;;;6.57;3.23;;;2.40;99.90;;;3.16;100.00;97642.09;5072479;28;20516;-82
2020/12/14 01:31:59;;;;;;;5.83;2.60;;;2.40;99.90;;;3.13;100.00;97638.03;5073116;28;20530;-82
2020/12/14 01:34:26;;;;;;;13.07;2.83;;;2.40;99.90;;;3.17;100.00;97649.69;5072371;28;20451;-82
2020/12/14 01:36:54;;;;;;;10.77;3.10;;;2.40;99.90;;;3.25;100.00;97654.94;5073828;28;20468;-82
2020/12/14 01:39:21;;;;;;;6.30;2.80;;;2.50;99.90;;;3.29;100.00;97660.59;5076252;28;20500;-82
2020/12/14 01:41:51;;;;;;;5.40;2.70;;;2.50;99.90;;;3.35;100.00;97658.22;5074895;28;20521;-83
2020/12/14 01:44:19;;;;;;;17.43;2.73;;;2.60;99.90;;;3.37;100.00;97655.47;5075164;28;20529;-83
2020/12/14 01:46:47;;;;;;;6.40;2.90;;;2.70;99.90;;;3.41;100.00;97656.78;5074830;28;20455;-82
2020/12/14 01:49:15;;;;;;;5.90;3.10;;;2.80;99.90;;;3.40;100.00;97661.16;5076577;28;20459;-82
2020/12/14 01:51:43;;;;;;;3.97;2.97;;;2.80;99.90;;;3.41;100.00;97660.19;5073469;28;20916;-82
2020/12/14 01:54:22;;;;;;;6.40;3.77;;;2.80;99.90;;;3.45;100.00;97663.28;5076882;28;20455;-82
2020/12/14 01:56:50;;;;;;;8.07;4.47;;;2.80;99.90;;;3.41;100.00;97657.59;5074760;28;20456;-82
2020/12/14 01:59:18;;;;;;;10.83;3.33;;;2.80;99.90;;;3.46;100.00;97655.38;5078547;28;20495;-82
2020/12/14 02:01:45;;;;;;;6.43;3.57;;;2.70;99.90;;;3.53;100.00;97648.66;5074818;28;20489;-82
2020/12/14 02:04:13;;;;;;;8.10;3.40;;;2.80;99.90;;;3.48;100.00;97647.47;5076037;28;20460;-82
2020/12/14 02:06:43;;;;;;;7.10;3.70;;;2.80;99.90;;;3.42;100.00;97646.31;5070465;28;20491;-83
2020/12/14 02:09:11;;;;;;;6.03;3.37;;;2.70;99.90;;;3.44;100.00;97649.53;5070338;28;20853;-82
2020/12/14 02:11:39;;;;;;;7.27;3.60;;;2.70;99.90;;;3.47;100.00;97645.88;5076454;28;20467;-82
2020/12/14 02:14:06;;;;;;;5.67;3.20;;;2.80;99.90;;;3.49;100.00;97649.09;5075423;28;20461;-83
2020/12/14 02:16:34;;;;;;;4.50;3.07;;;2.80;99.90;;;3.54;100.00;97647.66;5076398;28;20463;-83
2020/12/14 02:19:01;;;;;;;2.63;2.37;;;2.80;99.90;;;3.55;100.00;97649.28;5076438;28;20553;-82
2020/12/14 02:21:29;;;;;;;5.77;2.60;;;2.80;99.90;;;3.49;100.00;97644.75;5073085;28;20695;-82
2020/12/14 02:23:57;;;;;;;3.73;2.30;;;2.80;99.90;;;3.41;100.00;97651.63;5074509;28;20443;-82
2020/12/14 02:26:26;;;;;;;6.60;2.77;;;2.70;99.90;;;3.50;100.00;97646.38;5074541;28;20905;-82
2020/12/14 02:28:53;;;;;;;9.00;2.53;;;2.80;99.90;;;3.53;100.00;97638.31;5077415;28;20966;-83
2020/12/14 02:31:21;;;;;;;4.20;2.53;;;2.90;99.90;;;3.59;100.00;97636.88;5076793;28;20458;-82
2020/12/14 02:33:48;;;;;;;4.70;2.67;;;3.00;99.90;;;3.63;100.00;97634.78;5074103;28;20448;-83
2020/12/14 02:36:16;;;;;;;4.70;2.63;;;3.00;99.90;;;3.65;100.00;97628.50;5075854;28;21061;-82
2020/12/14 02:38:43;;;;;;;4.93;2.67;;;2.90;99.90;;;3.71;100.00;97627.09;5075185;28;20494;-82
2020/12/14 02:41:12;;;;;;;4.13;2.20;;;3.00;99.90;;;3.64;100.00;97632.06;5073607;28;20485;-82
2020/12/14 02:43:40;;;;;;;3.47;2.20;;;2.90;99.90;;;3.62;100.00;97623.66;5072344;28;20460;-82
2020/12/14 02:46:08;;;;;;;4.73;2.50;;;2.90;99.90;;;3.61;100.00;97626.41;5076683;28;21079;-82
2020/12/14 02:48:35;;;;;;;5.27;2.13;;;2.90;99.90;;;3.73;100.00;97625.16;5072556;28;20562;-83
2020/12/14 02:51:03;;;;;;;7.03;2.70;;;3.00;99.90;;;3.76;100.00;97632.59;5072645;28;20780;-82
2020/12/14 02:53:30;;;;;;;9.23;2.23;;;3.00;99.90;;;3.77;100.00;97632.44;5074854;28;20456;-82
2020/12/14 02:55:58;;;;;;;4.80;2.40;;;3.10;99.90;;;3.78;100.00;97636.66;5074654;28;20460;-82
2020/12/14 02:58:25;;;;;;;6.47;2.83;;;3.10;99.90;;;3.81;100.00;97638.13;5073920;28;20490;-82
2020/12/14 03:00:53;;;;;;;7.00;2.43;;;3.10;99.90;;;3.87;100.00;97630.56;5075211;28;20501;-82
2020/12/14 03:03:21;;;;;;;3.70;2.20;;;3.20;99.90;;;3.91;100.00;97629.28;5075768;28;20464;-82
2020/12/14 03:05:48;;;;;;;7.63;2.33;;;3.30;99.90;;;3.93;100.00;97627.34;5076507;28;20446;-83
2020/12/14 03:08:16;;;;;;;5.47;2.30;;;3.30;99.90;;;3.98;100.00;97624.28;5074459;28;20475;-82
2020/12/14 03:10:44;;;;;;;3.73;2.47;;;3.30;99.90;;;4.04;100.00;97636.59;5069405;28;20476;-82
2020/12/14 03:13:11;;;;;;;3.70;2.30;;;3.40;99.90;;;4.04;100.00;97634.00;5075055;28;20467;-82
2020/12/14 03:15:40;;;;;;;5.30;2.43;;;3.40;99.90;;;4.08;100.00;97630.16;5075169;28;20914;-82
2020/12/14 03:18:08;;;;;;;3.70;2.10;;;3.50;99.90;;;4.10;100.00;97620.44;5075450;28;20472;-83
2020/12/14 03:20:36;;;;;;;4.23;2.47;;;3.50;99.90;;;4.11;100.00;97621.25;5068381;28;20885;-82
2020/12/14 03:23:03;;;;;;;4.63;2.43;;;3.50;99.90;;;4.14;100.00;97621.75;5073394;28;20472;-82
2020/12/14 03:25:31;;;;;;;9.57;2.43;;;3.50;99.90;;;4.15;100.00;97620.78;5072945;28;20468;-82
2020/12/14 03:27:58;;;;;;;5.50;2.07;;;3.50;99.90;;;4.18;100.00;97607.53;5071306;28;20496;-82
2020/12/14 03:30:27;;;;;;;3.87;2.10;;;3.50;99.90;;;4.21;100.00;97614.16;5074463;28;20965;-82
2020/12/14 03:32:55;;;;;;;8.50;2.50;;;3.50;99.90;;;4.22;100.00;97616.63;5068787;28;20464;-83
2020/12/14 03:35:23;;;;;;;7.07;4.00;;;3.60;99.90;;;4.25;100.00;97612.91;5073844;28;20464;-82
2020/12/14 03:37:51;;;;;;;7.40;3.67;;;3.70;99.90;;;4.28;100.00;97625.50;5075074;28;20476;-82
2020/12/14 03:40:19;;;;;;;16.17;4.07;;;3.60;99.90;;;4.23;100.00;97623.41;5073259;28;20507;-82
2020/12/14 03:42:46;;;;;;;7.10;3.50;;;3.50;99.90;;;4.28;100.00;97605.63;5073352;28;20482;-82
2020/12/14 03:45:14;;;;;;;6.80;3.33;;;3.70;99.90;;;4.28;100.00;97603.03;5074315;28;20459;-82
2020/12/14 03:47:41;;;;;;;5.90;3.10;;;3.60;99.90;;;4.28;100.00;97615.97;5075426;28;20866;-82
2020/12/14 03:50:09;;;;;;;8.50;3.17;;;3.60;99.90;;;4.29;100.00;97606.44;5072773;28;21025;-82
2020/12/14 03:52:37;;;;;;;4.50;3.00;;;3.60;99.90;;;4.25;100.00;97613.72;5074135;28;20456;-83
2020/12/14 03:55:05;;;;;;;4.93;3.03;;;3.60;99.90;;;4.28;100.00;97610.81;5076199;28;20456;-81
2020/12/14 03:57:32;;;;;;;7.63;3.07;;;3.60;99.90;;;4.31;100.00;97607.06;5073202;28;20479;-81
2020/12/14 04:00:00;;;;;;;6.83;3.17;;;3.70;99.90;;;4.33;100.00;97595.63;5071656;28;20581;-81
2020/12/14 04:02:27;;;;;;;3.90;2.80;;;3.70;99.90;;;4.39;100.00;97596.75;5076501;28;20471;-82
2020/12/14 04:04:55;;;;;;;6.77;3.13;;;3.70;99.90;;;4.37;100.00;97573.59;5073064;28;20533;-81
2020/12/14 04:07:22;;;;;;;4.50;2.60;;;3.70;99.90;;;4.39;100.00;97569.09;5072625;28;20471;-81
2020/12/14 04:09:51;;;;;;;6.30;3.23;;;3.70;99.90;;;4.45;100.00;97583.16;5072897;28;20843;-82
2020/12/14 04:12:19;;;;;;;5.33;2.70;;;3.80;99.90;;;4.42;100.00;97584.31;5071848;28;20498;-82
2020/12/14 04:14:46;;;;;;;4.30;2.33;;;3.80;99.90;;;4.38;100.00;97582.19;5074013;28;20461;-81
2020/12/14 04:17:13;;;;;;;5.30;2.70;;;3.70;99.90;;;4.44;100.00;97584.94;5070451;28;20455;-81
2020/12/14 04:19:41;;;;;;;6.67;2.80;;;3.70;99.90;;;4.47;100.00;97589.00;5070413;28;20491;-82
2020/12/14 04:22:09;;;;;;;4.53;2.57;;;3.80;99.90;;;4.48;100.00;97593.19;5073052;28;20493;-81
2020/12/14 04:24:37;;;;;;;3.60;2.47;;;3.80;99.90;;;4.48;100.00;97599.19;5070531;28;21259;-82
2020/12/14 04:27:06;;;;;;;11.23;2.23;;;3.80;99.90;;;4.53;100.00;97607.28;5069019;28;20499;-81
2020/12/14 04:29:33;;;;;;;5.33;2.23;;;3.90;99.90;;;4.54;100.00;97601.16;5074735;28;20464;-82
2020/12/14 04:32:01;;;;;;;4.40;2.00;;;3.90;99.90;;;4.55;100.00;97605.34;5070701;28;20467;-82
2020/12/14 04:34:28;;;;;;;3.57;2.17;;;3.90;99.90;;;4.57;100.00;97595.66;5073945;28;21272;-81
2020/12/14 04:36:56;;;;;;;3.00;1.97;;;3.90;99.90;;;4.61;100.00;97587.56;5071561;28;20475;-82
2020/12/14 04:39:23;;;;;;;2.50;1.67;;;4.00;99.90;;;4.58;100.00;97594.66;5069639;28;20530;-82
2020/12/14 04:41:57;;;;;;;5.23;2.07;;;3.90;99.90;;;4.61;100.00;97601.31;5071209;28;20455;-82
2020/12/14 04:44:26;;;;;;;6.63;2.60;;;3.90;99.90;;;4.61;100.00;97606.50;5070522;28;20520;-82
2020/12/14 04:46:54;;;;;;;49.47;19.30;;;4.00;99.90;;;4.61;100.00;97603.09;5070326;28;20529;-82
2020/12/14 04:49:22;;;;;;;4.50;2.50;;;4.00;99.90;;;4.62;100.00;97608.09;5075031;28;20467;-82
2020/12/14 04:51:52;;;;;;;6.10;1.90;;;4.00;99.90;;;4.65;100.00;97609.59;5073396;28;20976;-81
2020/12/14 04:54:23;;;;;;;3.43;1.70;;;3.90;99.90;;;4.65;100.00;97607.00;5068545;28;20468;-81
2020/12/14 04:56:54;;;;;;;7.40;3.30;;;4.10;99.90;;;4.66;100.00;97608.59;5070775;28;20956;-82
2020/12/14 04:59:25;;;;;;;12.60;2.10;;;4.00;99.90;;;4.68;100.00;97611.84;5073800;28;20483;-82
2020/12/14 05:01:52;;;;;;;3.17;1.70;;;4.00;99.90;;;4.71;100.00;97619.28;5064175;28;20472;-82
2020/12/14 05:04:20;;;;;;;4.03;1.70;;;4.10;99.90;;;4.72;100.00;97623.50;5071326;28;20564;-82
2020/12/14 05:06:51;;;;;;;5.83;3.03;;;4.10;99.90;;;4.72;100.00;97613.94;5075039;28;20466;-82
2020/12/14 05:09:21;;;;;;;6.00;1.80;;;4.10;99.90;;;4.72;100.00;97608.75;5079172;28;20452;-82
2020/12/14 05:11:49;;;;;;;2.50;1.60;;;4.00;99.90;;;4.74;100.00;97616.38;5078805;28;21008;-82
2020/12/14 05:14:19;;;;;;;4.00;1.60;;;4.10;99.90;;;4.76;100.00;97614.41;5077339;28;20464;-82
2020/12/14 05:16:49;;;;;;;4.03;1.60;;;4.10;99.90;;;4.77;100.00;97613.47;5079562;28;20937;-82
2020/12/14 05:19:22;;;;;;;4.67;1.67;;;4.10;99.90;;;4.80;100.00;97610.53;5078421;28;20491;-82
2020/12/14 05:21:53;;;;;;;2.97;1.57;;;4.10;99.90;;;4.82;100.00;97611.22;5079766;28;20456;-83
2020/12/14 05:24:29;;;;;;;2.13;1.67;;;4.20;99.90;;;4.81;100.00;97612.97;5076512;28;20445;-82
2020/12/14 05:26:59;;;;;;;1.90;1.40;;;4.20;99.90;;;4.83;100.00;97611.03;5078795;28;20475;-82
2020/12/14 05:29:29;;;;;;;3.80;1.60;;;4.20;99.90;;;4.83;100.00;97615.41;5073984;28;20830;-82
2020/12/14 05:32:10;;;;;;;2.27;2.07;;;4.20;99.90;;;4.84;100.00;97612.66;5074078;28;20467;-83
2020/12/14 05:34:39;;;;;;;4.50;2.00;;;4.20;99.90;;;4.81;100.00;97610.41;5075158;28;20821;-83
2020/12/14 05:37:09;;;;;;;1.73;1.50;;;4.10;99.90;;;4.82;100.00;97606.84;5078413;28;20449;-83
2020/12/14 05:39:39;;;;;;;3.23;1.40;;;4.10;99.90;;;4.85;100.00;97614.28;5077352;28;20852;-83
2020/12/14 05:42:15;;;;;;;5.37;1.50;;;4.20;99.90;;;4.85;100.00;97603.94;5075621;28;20443;-83
2020/12/14 05:44:45;;;;;;;2.80;1.67;;;4.20;99.90;;;4.86;100.00;97610.69;5076011;28;20471;-83
2020/12/14 05:47:28;;;;;;;5.17;1.90;;;4.20;99.90;;;4.87;100.00;97606.34;5070934;28;20821;-84
2020/12/14 05:49:57;;;;;;;2.60;1.57;;;4.20;99.90;;;4.90;100.00;97606.81;5075347;28;20463;-80
2020/12/14 05:52:32;;;;;;;6.47;3.73;;;4.20;99.90;;;4.91;100.00;97603.25;5075617;28;20475;-82
2020/12/14 05:55:01;;;;;;;3.70;1.70;;;4.20;99.90;;;4.92;100.00;97604.09;5080235;28;20454;-82
2020/12/14 05:57:32;;;;;;;2.77;2.00;;;4.30;99.90;;;4.91;100.00;97605.03;5075500;28;20471;-81
2020/12/14 06:00:04;;;;;;;4.63;1.97;;;4.20;99.90;;;4.91;100.00;97603.25;5079377;28;20876;-81
2020/12/14 06:02:33;;;;;;;2.83;1.33;;;4.20;99.90;;;4.86;100.00;97605.53;5080379;28;20443;-81
2020/12/14 06:05:04;;;;;;;2.13;1.63;;;4.20;99.90;;;4.88;100.00;97618.31;5080111;28;20483;-81
2020/12/14 06:07:34;;;;;;;4.07;1.90;;;4.20;99.90;;;4.87;100.00;97614.09;5078267;28;20534;-81
2020/12/14 06:10:10;;;;;;;3.17;1.93;;;4.20;99.90;;;4.86;100.00;97618.47;5079916;28;21048;-81
2020/12/14 06:12:45;;;;;;;1.93;1.50;;;4.20;99.90;;;4.86;100.00;97604.75;5078983;28;20530;-81
2020/12/14 06:15:15;;;;;;;3.80;1.67;;;4.20;99.90;;;4.87;100.00;97607.16;5078573;28;20438;-81
2020/12/14 06:17:45;;;;;;;7.10;2.07;;;4.20;99.90;;;4.90;100.00;97611.19;5079835;28;20440;-81
2020/12/14 06:20:17;;;;;;;6.87;2.13;;;4.20;99.90;;;4.91;100.00;97618.81;5078081;28;20890;-81
2020/12/14 06:22:48;;;;;;;3.67;1.60;;;4.20;99.90;;;4.91;100.00;97623.19;5079675;28;20506;-81
2020/12/14 06:25:17;;;;;;;5.57;2.20;;;4.20;99.90;;;4.93;100.00;97616.03;5078990;28;20454;-81
2020/12/14 06:27:44;;;;;;;7.30;2.40;;;4.30;99.90;;;4.92;100.00;97625.63;5078821;28;21007;-82
2020/12/14 06:30:34;;;;;;;5.23;1.57;;;4.20;99.90;;;4.91;100.00;97628.34;5078907;28;20461;-81
2020/12/14 06:33:08;;;;;;;4.90;1.90;;;4.20;99.90;;;4.93;100.00;97640.16;5078890;28;20452;-81
2020/12/14 06:35:45;;;;;;;7.53;2.80;;;4.20;99.90;;;4.93;100.00;97642.75;5079745;28;20443;-82
2020/12/14 06:38:12;;;;;;;3.77;2.40;;;4.20;99.90;;;4.94;100.00;97643.56;5079095;28;20472;-81
2020/12/14 06:40:57;;;;;;;3.20;1.80;;;4.20;99.90;;;4.98;100.00;97644.88;5077530;28;20495;-81
2020/12/14 06:43:32;;;;;;;7.53;2.40;;;4.40;99.90;;;5.00;100.00;97645.50;5078488;28;20451;-81
2020/12/14 06:46:01;;;;;;;3.50;1.63;;;4.40;99.90;;;5.00;100.00;97648.09;5078827;28;20501;-81
2020/12/14 06:48:41;;;;;;;3.83;1.77;;;4.30;99.90;;;5.02;100.00;97649.59;5078554;28;20447;-81
2020/12/14 06:51:11;;;;;;;2.00;1.60;;;4.30;99.90;;;5.04;100.00;97655.41;5079237;28;20455;-81
2020/12/14 06:53:45;;;;;;;4.63;2.43;;;4.40;99.90;;;5.05;100.00;97646.66;5079767;28;20455;-81
2020/12/14 06:56:17;;;;;;;5.00;3.83;;;4.40;99.90;;;5.08;100.00;97640.34;5079240;28;20442;-81
2020/12/14 06:58:46;;;;;;;8.10;2.10;;;4.50;99.90;;;5.09;100.00;97649.75;5079354;28;20600;-81
2020/12/14 07:01:36;;;;;;;2.73;1.80;;;4.40;99.90;;;5.08;100.00;97635.97;5079590;28;20491;-81
2020/12/14 07:04:27;;;;;;;4.20;2.20;;;4.40;99.90;;;5.05;100.00;97644.06;5078758;28;20933;-81
2020/12/14 07:06:55;;;;;;;10.30;2.13;;;4.30;99.90;;;5.05;100.00;97648.44;5078266;28;20448;-81
2020/12/14 07:09:27;;;;;;;3.30;2.17;;;4.30;99.90;;;5.05;100.00;97649.25;5079238;28;20946;-81
2020/12/14 07:11:55;;;;;;;6.73;2.27;;;4.50;99.90;;;5.02;100.00;97656.53;5078855;28;20457;-81
2020/12/14 07:14:30;;;;;;;7.07;2.40;;;4.40;99.90;;;5.03;100.00;97660.75;5079381;28;20445;-81
2020/12/14 07:17:00;;;;;;;4.03;2.23;;;4.30;99.90;;;4.97;100.00;97659.59;5078879;28;20451;-81
2020/12/14 07:19:36;;;;;;;4.53;2.40;;;4.20;99.90;;;4.91;100.00;97655.06;5079956;28;20491;-81
2020/12/14 07:22:04;;;;;;;5.90;2.80;;;4.20;99.90;;;4.88;100.00;97667.53;5078951;28;20833;-81
2020/12/14 07:24:35;;;;;;;6.00;2.40;;;4.20;99.90;;;4.89;100.00;97666.56;5077052;28;20463;-80
2020/12/14 07:27:03;;;;;;;7.80;2.60;;;4.20;99.90;;;4.87;100.00;97669.31;5078537;28;20471;-81
2020/12/14 07:29:31;;;;;;;6.53;2.23;;;4.20;99.90;;;4.88;100.00;97670.13;5079033;28;20440;-81
2020/12/14 07:32:04;;;;;;;3.47;2.40;;;4.30;99.90;;;4.80;100.00;97675.28;5074904;28;20935;-81
2020/12/14 07:34:34;;;;;;;8.90;2.57;;;4.10;99.90;;;4.83;100.00;97677.56;5078827;28;20447;-81
2020/12/14 07:37:02;;;;;;;4.10;2.33;;;4.20;99.90;;;4.82;100.00;97691.50;5078867;28;20441;-81
2020/12/14 07:39:29;;;;;;;4.53;2.50;;;4.10;99.90;;;4.84;100.00;97690.34;5077513;28;20468;-82
2020/12/14 07:41:57;;;;;;;10.43;2.07;;;4.10;99.90;;;4.83;100.00;97682.72;5077952;28;20464;-81
2020/12/14 07:44:24;;;;;;;4.13;2.20;;;4.10;99.90;;;4.83;100.00;97687.91;5077903;28;20448;-81
2020/12/14 07:46:52;;;;;;;4.07;1.93;;;4.10;99.90;;;4.84;100.00;97685.19;5078670;28;20444;-81
2020/12/14 07:49:23;;;;;;;3.17;1.90;;;4.10;99.90;;;4.84;100.00;97692.13;5079356;28;20486;-81
2020/12/14 07:51:52;;;;;;;3.87;2.13;;;4.10;99.90;;;4.84;100.00;97684.38;5075275;28;20435;-81
2020/12/14 07:54:20;;;;;;;8.87;2.30;;;4.10;99.90;;;4.84;100.00;97697.31;5078359;28;20456;-80
2020/12/14 07:56:57;;;;;;;10.20;2.87;;;4.00;99.90;;;4.86;100.00;97693.59;5077484;28;20464;-81
2020/12/14 07:59:28;;;;;;;5.90;2.43;;;4.10;99.90;;;4.91;100.00;97693.13;5075985;28;20443;-81
2020/12/14 08:01:57;;;;;;;11.47;2.67;;;4.20;99.90;;;4.92;100.00;97694.75;5079456;28;20456;-81
2020/12/14 08:04:28;;;;;;;3.30;2.60;;;4.20;99.90;;;4.89;100.00;97698.47;5075544;28;20856;-81
2020/12/14 08:06:58;;;;;;;4.70;2.30;;;4.20;99.90;;;4.92;100.00;97703.34;5079381;28;20444;-82
2020/12/14 08:09:33;;;;;;;6.93;2.30;;;4.20;99.90;;;4.95;100.00;97695.25;5075928;28;20467;-81
2020/12/14 08:12:02;;;;;;;7.63;2.57;;;4.30;99.90;;;4.97;100.00;97695.88;5079019;28;20440;-81
2020/12/14 08:14:31;;;;;;;10.17;2.33;;;4.20;99.90;;;4.96;100.00;97696.06;5078504;28;20444;-80
2020/12/14 08:17:00;;;;;;;8.73;3.23;;;4.30;99.90;;;4.97;100.00;97701.06;5077374;28;20449;-80
2020/12/14 08:19:35;;;;;;;6.80;2.13;;;4.30;99.90;;;4.96;100.00;97694.25;5078061;28;20431;-80
2020/12/14 08:22:06;;;;;;;6.17;2.70;;;4.30;99.90;;;4.98;100.00;97689.72;5078019;28;20494;-81
2020/12/14 08:24:35;;;;;;;5.83;2.83;;;4.30;99.90;;;5.00;100.00;97692.16;5077213;28;20455;-81
2020/12/14 08:27:06;;;;;;;7.83;2.90;;;4.30;99.90;;;4.98;100.00;97691.50;5077707;28;20802;-81
2020/12/14 08:29:37;;;;;;;8.33;3.20;;;4.30;99.90;;;4.98;100.00;97686.31;5078319;28;20448;-81
2020/12/14 08:32:06;;;;;;;5.03;2.90;;;4.40;99.90;;;4.97;100.00;97695.06;5078848;28;20938;-81
2020/12/14 08:34:37;;;;;;;2.93;2.63;;;4.40;99.90;;;4.97;100.00;97682.09;5078258;28;20443;-81
2020/12/14 08:37:06;;;;;;;6.70;2.60;;;4.40;99.90;;;4.96;100.00;97694.25;5077844;28;20564;-81
2020/12/14 08:39:34;;;;;;;4.20;2.80;;;4.40;99.90;;;4.97;100.00;97687.28;5081456;28;20468;-81
2020/12/14 08:42:11;;;;;;;2.80;2.60;;;4.50;99.90;;;4.95;100.00;97694.41;5080048;28;20462;-81
2020/12/14 08:44:40;;;;;;;3.73;2.43;;;4.50;99.90;;;4.90;100.00;97700.06;5081870;28;20440;-81
2020/12/14 08:47:17;;;;;;;10.90;2.40;;;4.30;99.90;;;4.89;100.00;97697.66;5081043;28;20517;-81
2020/12/14 08:49:45;;;;;;;3.23;2.20;;;4.30;99.90;;;4.91;100.00;97695.72;5081538;28;20512;-81
2020/12/14 08:52:22;;;;;;;3.33;2.20;;;4.40;99.90;;;4.87;100.00;97691.81;5081600;28;20452;-81
2020/12/14 08:54:55;;;;;;;6.10;2.10;;;4.30;99.90;;;4.87;100.00;97691.81;5080022;28;20447;-81
2020/12/14 08:57:26;;;;;;;4.97;2.40;;;4.20;99.90;;;4.85;100.00;97691.16;5081393;28;20968;-80
2020/12/14 09:00:04;;;;;;;4.70;2.17;;;4.20;99.90;;;4.87;100.00;97702.16;5082322;28;20501;-81
2020/12/14 09:02:31;;;;;;;6.73;2.20;;;4.30;99.90;;;4.89;100.00;97695.06;5082227;28;20444;-81
2020/12/14 09:04:59;;;;;;;6.53;1.83;;;4.40;99.90;;;4.92;100.00;97692.16;5081122;28;20439;-81
2020/12/14 09:07:28;;;;;;;2.77;2.47;;;4.30;99.90;;;4.92;100.00;97695.56;5081521;28;20447;-81
2020/12/14 09:09:56;;;;;;;5.63;2.30;;;4.30;99.90;;;4.95;100.00;97695.25;5081366;28;20444;-80
2020/12/14 09:12:28;;;;;;;2.20;1.90;;;4.40;99.90;;;4.96;100.00;97704.59;5081672;28;20439;-81
2020/12/14 09:15:04;;;;;;;2.50;1.90;;;4.30;99.90;;;4.98;100.00;97707.06;5082565;28;20461;-80
2020/12/14 09:17:31;;;;;;;2.00;1.50;;;4.40;99.90;;;4.98;100.00;97707.06;5082279;28;20466;-80
2020/12/14 09:20:02;;;;;;;3.77;2.03;;;4.30;99.90;;;5.02;100.00;97708.34;5081519;28;20488;-81
2020/12/14 09:22:30;;;;;;;4.40;2.37;;;4.30;99.90;;;5.02;100.00;97713.53;5081776;28;20440;-81
2020/12/14 09:24:58;;;;;;;5.27;2.43;;;4.30;99.90;;;5.06;100.00;97720.03;5078868;28;20452;-81
2020/12/14 09:27:26;;;;;;;2.10;1.60;;;4.40;99.90;;;5.10;100.00;97723.09;5078812;28;20483;-80
2020/12/14 09:29:56;;;;;;;3.53;2.10;;;4.50;99.90;;;5.11;100.00;97722.13;5081642;28;20456;-81
2020/12/14 09:32:24;;;;;;;2.17;1.80;;;4.40;99.90;;;5.10;100.00;97721.31;5079554;28;20449;-80
2020/12/14 09:34:52;;;;;;;7.20;2.13;;;4.40;99.90;;;5.12;100.00;97721.97;5081478;28;20452;-81
2020/12/14 09:37:20;;;;;;;4.20;2.13;;;4.40;99.90;;;5.18;100.00;97715.31;5078548;28;20440;-81
2020/12/14 09:39:48;;;;;;;2.90;1.90;;;4.50;99.90;;;5.19;100.00;97720.34;5076484;28;20461;-81
2020/12/14 09:42:16;;;;;;;6.30;2.20;;;4.50;99.90;;;5.21;100.00;97720.19;5080583;28;20455;-80
2020/12/14 09:44:44;;;;;;;2.63;1.80;;;4.60;99.90;;;5.22;100.00;97719.22;5081757;28;20460;-81
2020/12/14 09:47:11;;;;;;;2.40;1.90;;;4.60;99.90;;;5.23;100.00;97718.25;5080364;28;20448;-81
2020/12/14 09:49:39;;;;;;;4.60;2.67;;;4.60;99.90;;;5.24;100.00;97722.47;5078789;28;20448;-81
2020/12/14 09:52:07;;;;;;;3.60;1.97;;;4.60;99.90;;;5.25;100.00;97719.69;5079957;28;20452;-81
2020/12/14 09:54:35;;;;;;;3.97;1.80;;;4.60;99.90;;;5.26;100.00;97718.75;5081791;28;20446;-81
2020/12/14 09:57:03;;;;;;;5.70;2.07;;;4.70;99.90;;;5.30;100.00;97717.44;5081471;28;20468;-81
2020/12/14 09:59:31;;;;;;;4.97;1.93;;;4.70;99.90;;;5.33;100.00;97716.31;5078459;28;20968;-81
2020/12/14 10:01:59;;;;;;;7.77;1.83;;;4.70;99.90;;;5.34;100.00;97717.94;5082097;28;20499;-81
2020/12/14 10:04:27;;;;;;;3.00;1.80;;;4.80;99.90;;;5.37;100.00;97712.41;5081244;28;20443;-81
2020/12/14 10:06:54;;;;;;;3.00;2.20;;;4.80;99.90;;;5.42;100.00;97704.94;5080537;28;20455;-81
2020/12/14 10:09:22;;;;;;;4.87;2.33;;;4.90;99.90;;;5.42;100.00;97708.34;5077310;28;20449;-80
2020/12/14 10:11:50;;;;;;;3.03;2.07;;;4.80;99.90;;;5.42;100.00;97705.75;5079904;28;20448;-81
2020/12/14 10:14:18;;;;;;;5.17;1.90;;;4.80;99.90;;;5.41;100.00;97711.94;5081179;28;20452;-81
2020/12/14 10:16:50;;;;;;;8.60;2.10;;;4.80;99.90;;;5.46;100.00;97707.06;5081050;28;20494;-80
2020/12/14 10:19:18;;;;;;;3.23;2.10;;;4.90;99.90;;;5.51;100.00;97704.81;5080309;28;20444;-81
2020/12/14 10:21:49;;;;;;;2.03;1.80;;;5.00;99.90;;;5.59;100.00;97716.94;5080176;28;20495;-81
2020/12/14 10:24:16;;;;;;;2.50;1.60;;;5.00;99.90;;;5.68;100.00;97715.16;5080931;28;20436;-82
2020/12/14 10:26:44;;;;;;;1.63;1.53;;;5.10;99.90;;;5.77;100.00;97714.97;5079865;28;21014;-81
2020/12/14 10:29:13;;;;;;;2.90;1.77;;;5.20;99.90;;;5.86;100.00;97721.00;5078571;28;20441;-81
2020/12/14 10:31:44;;;;;;;3.77;1.60;;;5.40;99.90;;;5.92;100.00;97708.16;5075730;28;20494;-81
2020/12/14 10:34:12;;;;;;;6.00;1.90;;;5.40;99.90;;;5.99;100.00;97710.91;5079031;28;20534;-81